sensor_id;sensor_type;location;lat;lon;timestamp;P1;durP1;ratioP1;P2;durP2;ratioP2
17987;SDS011;9119;50.932;5.342;2023-02-01T00:00:00;29.13;;;9.60;;
17987;SDS011;9119;50.932;5.342;2023-02-01T00:02:25;36.53;;;9.43;;
17987;SDS011;9119;50.932;5.342;2023-02-01T00:04:51;34.07;;;9.63;;
17987;SDS011;9119;50.932;5.342;2023-02-01T00:07:17;38.83;;;10.03;;
17987;SDS011;9119;50.932;5.342;2023-02-01T00:09:42;31.33;;;10.33;;
17987;SDS011;9119;50.932;5.342;2023-02-01T00:12:08;42.23;;;10.77;;
17987;SDS011;9119;50.932;5.342;2023-02-01T00:14:34;34.40;;;9.90;;
17987;SDS011;9119;50.932;5.342;2023-02-01T00:17:04;34.77;;;10.13;;
17987;SDS011;9119;50.932;5.342;2023-02-01T00:19:31;29.10;;;10.93;;
17987;SDS011;9119;50.932;5.342;2023-02-01T00:21:58;39.37;;;11.20;;
17987;SDS011;9119;50.932;5.342;2023-02-01T00:24:24;36.27;;;11.23;;
17987;SDS011;9119;50.932;5.342;2023-02-01T00:26:49;34.67;;;11.37;;
17987;SDS011;9119;50.932;5.342;2023-02-01T00:29:16;33.50;;;11.87;;
17987;SDS011;9119;50.932;5.342;2023-02-01T00:31:43;35.67;;;11.53;;
17987;SDS011;9119;50.932;5.342;2023-02-01T00:34:10;34.23;;;11.43;;
17987;SDS011;9119;50.932;5.342;2023-02-01T00:36:37;36.43;;;12.40;;
17987;SDS011;9119;50.932;5.342;2023-02-01T00:39:06;30.23;;;12.47;;
17987;SDS011;9119;50.932;5.342;2023-02-01T00:41:31;35.60;;;12.23;;
17987;SDS011;9119;50.932;5.342;2023-02-01T00:43:57;35.57;;;12.10;;
17987;SDS011;9119;50.932;5.342;2023-02-01T00:46:26;40.30;;;12.67;;
17987;SDS011;9119;50.932;5.342;2023-02-01T00:48:53;36.50;;;12.27;;
17987;SDS011;9119;50.932;5.342;2023-02-01T00:51:20;36.93;;;11.80;;
17987;SDS011;9119;50.932;5.342;2023-02-01T00:53:48;29.43;;;11.20;;
17987;SDS011;9119;50.932;5.342;2023-02-01T00:56:14;40.93;;;12.33;;
17987;SDS011;9119;50.932;5.342;2023-02-01T00:58:40;34.47;;;11.30;;
17987;SDS011;9119;50.932;5.342;2023-02-01T01:03:43;39.93;;;11.73;;
17987;SDS011;9119;50.932;5.342;2023-02-01T01:06:15;37.83;;;12.30;;
17987;SDS011;9119;50.932;5.342;2023-02-01T01:08:44;41.20;;;12.20;;
17987;SDS011;9119;50.932;5.342;2023-02-01T01:11:11;39.47;;;12.43;;
17987;SDS011;9119;50.932;5.342;2023-02-01T01:13:45;36.57;;;12.23;;
17987;SDS011;9119;50.932;5.342;2023-02-01T01:16:15;35.23;;;12.03;;
17987;SDS011;9119;50.932;5.342;2023-02-01T01:18:42;37.97;;;12.03;;
17987;SDS011;9119;50.932;5.342;2023-02-01T01:21:08;45.17;;;12.80;;
17987;SDS011;9119;50.932;5.342;2023-02-01T01:23:36;38.23;;;14.07;;
17987;SDS011;9119;50.932;5.342;2023-02-01T01:26:14;33.87;;;12.73;;
17987;SDS011;9119;50.932;5.342;2023-02-01T01:28:43;41.63;;;13.57;;
17987;SDS011;9119;50.932;5.342;2023-02-01T01:31:09;38.90;;;12.13;;
17987;SDS011;9119;50.932;5.342;2023-02-01T01:33:37;51.17;;;12.67;;
17987;SDS011;9119;50.932;5.342;2023-02-01T01:36:06;44.77;;;13.17;;
17987;SDS011;9119;50.932;5.342;2023-02-01T01:38:36;42.43;;;13.00;;
17987;SDS011;9119;50.932;5.342;2023-02-01T01:41:02;36.77;;;12.53;;
17987;SDS011;9119;50.932;5.342;2023-02-01T01:43:46;46.53;;;14.47;;
17987;SDS011;9119;50.932;5.342;2023-02-01T01:46:20;46.53;;;14.07;;
17987;SDS011;9119;50.932;5.342;2023-02-01T01:48:58;43.23;;;13.83;;
17987;SDS011;9119;50.932;5.342;2023-02-01T01:51:27;38.70;;;14.10;;
17987;SDS011;9119;50.932;5.342;2023-02-01T01:57:22;39.33;;;13.03;;
17987;SDS011;9119;50.932;5.342;2023-02-01T02:02:34;49.93;;;15.33;;
17987;SDS011;9119;50.932;5.342;2023-02-01T02:05:01;40.37;;;14.87;;
17987;SDS011;9119;50.932;5.342;2023-02-01T02:07:28;43.33;;;13.10;;
17987;SDS011;9119;50.932;5.342;2023-02-01T02:10:07;39.53;;;14.93;;
17987;SDS011;9119;50.932;5.342;2023-02-01T02:12:38;43.30;;;13.17;;
17987;SDS011;9119;50.932;5.342;2023-02-01T02:15:06;40.83;;;12.77;;
17987;SDS011;9119;50.932;5.342;2023-02-01T02:34:06;40.87;;;10.03;;
17987;SDS011;9119;50.932;5.342;2023-02-01T02:39:35;41.17;;;9.07;;
17987;SDS011;9119;50.932;5.342;2023-02-01T02:45:41;30.47;;;7.37;;
17987;SDS011;9119;50.932;5.342;2023-02-01T02:48:38;35.37;;;6.57;;
17987;SDS011;9119;50.932;5.342;2023-02-01T02:51:18;26.43;;;5.23;;
17987;SDS011;9119;50.932;5.342;2023-02-01T02:54:08;35.47;;;5.57;;
17987;SDS011;9119;50.932;5.342;2023-02-01T02:57:07;29.83;;;6.27;;
17987;SDS011;9119;50.932;5.342;2023-02-01T02:59:55;30.30;;;5.03;;
17987;SDS011;9119;50.932;5.342;2023-02-01T03:02:45;28.63;;;4.93;;
17987;SDS011;9119;50.932;5.342;2023-02-01T03:05:32;28.73;;;4.83;;
17987;SDS011;9119;50.932;5.342;2023-02-01T03:08:03;23.83;;;4.37;;
17987;SDS011;9119;50.932;5.342;2023-02-01T03:13:24;28.00;;;4.27;;
17987;SDS011;9119;50.932;5.342;2023-02-01T03:21:02;29.00;;;4.20;;
17987;SDS011;9119;50.932;5.342;2023-02-01T03:23:33;15.77;;;3.40;;
17987;SDS011;9119;50.932;5.342;2023-02-01T03:26:02;26.40;;;4.67;;
17987;SDS011;9119;50.932;5.342;2023-02-01T03:28:31;26.20;;;4.07;;
17987;SDS011;9119;50.932;5.342;2023-02-01T03:31:00;19.90;;;3.73;;
17987;SDS011;9119;50.932;5.342;2023-02-01T03:33:27;32.03;;;4.47;;
17987;SDS011;9119;50.932;5.342;2023-02-01T03:36:03;23.10;;;3.73;;
17987;SDS011;9119;50.932;5.342;2023-02-01T03:41:34;22.27;;;3.80;;
17987;SDS011;9119;50.932;5.342;2023-02-01T03:46:54;27.10;;;4.60;;
17987;SDS011;9119;50.932;5.342;2023-02-01T03:49:30;24.83;;;4.40;;
17987;SDS011;9119;50.932;5.342;2023-02-01T03:52:02;21.90;;;3.87;;
17987;SDS011;9119;50.932;5.342;2023-02-01T03:54:31;25.70;;;4.73;;
17987;SDS011;9119;50.932;5.342;2023-02-01T03:56:59;28.83;;;4.03;;
17987;SDS011;9119;50.932;5.342;2023-02-01T03:59:28;24.57;;;4.30;;
17987;SDS011;9119;50.932;5.342;2023-02-01T04:01:53;26.03;;;4.50;;
17987;SDS011;9119;50.932;5.342;2023-02-01T04:04:19;29.40;;;4.97;;
17987;SDS011;9119;50.932;5.342;2023-02-01T04:06:46;19.70;;;4.90;;
17987;SDS011;9119;50.932;5.342;2023-02-01T04:09:15;31.93;;;4.20;;
17987;SDS011;9119;50.932;5.342;2023-02-01T04:11:44;20.50;;;3.90;;
17987;SDS011;9119;50.932;5.342;2023-02-01T04:14:10;17.23;;;3.57;;
17987;SDS011;9119;50.932;5.342;2023-02-01T04:16:35;25.07;;;5.10;;
17987;SDS011;9119;50.932;5.342;2023-02-01T04:19:01;27.63;;;4.43;;
17987;SDS011;9119;50.932;5.342;2023-02-01T04:21:27;24.93;;;4.00;;
17987;SDS011;9119;50.932;5.342;2023-02-01T04:23:53;20.90;;;3.60;;
17987;SDS011;9119;50.932;5.342;2023-02-01T04:26:19;31.50;;;4.20;;
17987;SDS011;9119;50.932;5.342;2023-02-01T04:28:46;24.40;;;4.20;;
17987;SDS011;9119;50.932;5.342;2023-02-01T04:31:13;28.40;;;4.03;;
17987;SDS011;9119;50.932;5.342;2023-02-01T04:33:39;20.33;;;4.83;;
17987;SDS011;9119;50.932;5.342;2023-02-01T04:36:05;22.97;;;4.27;;
17987;SDS011;9119;50.932;5.342;2023-02-01T04:38:31;24.80;;;4.40;;
17987;SDS011;9119;50.932;5.342;2023-02-01T04:40:57;24.37;;;3.80;;
17987;SDS011;9119;50.932;5.342;2023-02-01T04:43:23;23.20;;;4.03;;
17987;SDS011;9119;50.932;5.342;2023-02-01T04:45:49;27.03;;;4.63;;
17987;SDS011;9119;50.932;5.342;2023-02-01T04:48:16;29.27;;;3.97;;
17987;SDS011;9119;50.932;5.342;2023-02-01T04:50:43;21.60;;;4.73;;
17987;SDS011;9119;50.932;5.342;2023-02-01T04:53:16;19.17;;;4.43;;
17987;SDS011;9119;50.932;5.342;2023-02-01T04:55:42;35.47;;;4.27;;
17987;SDS011;9119;50.932;5.342;2023-02-01T04:58:08;26.60;;;4.13;;
17987;SDS011;9119;50.932;5.342;2023-02-01T05:00:35;23.27;;;5.67;;
17987;SDS011;9119;50.932;5.342;2023-02-01T05:03:01;24.73;;;4.90;;
17987;SDS011;9119;50.932;5.342;2023-02-01T05:05:27;15.33;;;3.77;;
17987;SDS011;9119;50.932;5.342;2023-02-01T05:07:53;22.00;;;3.80;;
17987;SDS011;9119;50.932;5.342;2023-02-01T05:10:18;20.53;;;4.40;;
17987;SDS011;9119;50.932;5.342;2023-02-01T05:12:44;28.13;;;4.70;;
17987;SDS011;9119;50.932;5.342;2023-02-01T05:15:29;22.30;;;4.17;;
17987;SDS011;9119;50.932;5.342;2023-02-01T05:17:55;20.33;;;4.10;;
17987;SDS011;9119;50.932;5.342;2023-02-01T05:20:21;27.23;;;4.27;;
17987;SDS011;9119;50.932;5.342;2023-02-01T05:22:47;29.33;;;4.53;;
17987;SDS011;9119;50.932;5.342;2023-02-01T05:25:12;26.00;;;4.63;;
17987;SDS011;9119;50.932;5.342;2023-02-01T05:27:38;18.20;;;3.73;;
17987;SDS011;9119;50.932;5.342;2023-02-01T05:30:04;24.33;;;3.70;;
17987;SDS011;9119;50.932;5.342;2023-02-01T05:32:30;29.10;;;3.70;;
17987;SDS011;9119;50.932;5.342;2023-02-01T05:34:56;26.73;;;4.87;;
17987;SDS011;9119;50.932;5.342;2023-02-01T05:37:22;24.90;;;3.60;;
17987;SDS011;9119;50.932;5.342;2023-02-01T05:39:47;29.87;;;4.27;;
17987;SDS011;9119;50.932;5.342;2023-02-01T05:42:13;29.33;;;4.33;;
17987;SDS011;9119;50.932;5.342;2023-02-01T05:44:39;34.50;;;4.70;;
17987;SDS011;9119;50.932;5.342;2023-02-01T05:47:05;31.27;;;4.57;;
17987;SDS011;9119;50.932;5.342;2023-02-01T05:49:30;21.83;;;4.10;;
17987;SDS011;9119;50.932;5.342;2023-02-01T05:51:56;28.27;;;5.50;;
17987;SDS011;9119;50.932;5.342;2023-02-01T05:54:22;26.27;;;4.67;;
17987;SDS011;9119;50.932;5.342;2023-02-01T05:56:47;27.67;;;4.97;;
17987;SDS011;9119;50.932;5.342;2023-02-01T05:59:13;19.93;;;5.07;;
17987;SDS011;9119;50.932;5.342;2023-02-01T06:01:39;29.43;;;4.50;;
17987;SDS011;9119;50.932;5.342;2023-02-01T06:04:08;21.90;;;3.70;;
17987;SDS011;9119;50.932;5.342;2023-02-01T06:06:37;21.33;;;4.47;;
17987;SDS011;9119;50.932;5.342;2023-02-01T06:09:02;25.57;;;4.27;;
17987;SDS011;9119;50.932;5.342;2023-02-01T06:11:28;27.87;;;5.23;;
17987;SDS011;9119;50.932;5.342;2023-02-01T06:13:54;28.43;;;4.73;;
17987;SDS011;9119;50.932;5.342;2023-02-01T06:16:20;29.13;;;4.60;;
17987;SDS011;9119;50.932;5.342;2023-02-01T06:18:46;21.47;;;4.23;;
17987;SDS011;9119;50.932;5.342;2023-02-01T06:21:12;27.63;;;4.27;;
17987;SDS011;9119;50.932;5.342;2023-02-01T06:23:39;31.17;;;4.67;;
17987;SDS011;9119;50.932;5.342;2023-02-01T06:26:06;27.30;;;4.27;;
17987;SDS011;9119;50.932;5.342;2023-02-01T06:28:34;24.30;;;4.50;;
17987;SDS011;9119;50.932;5.342;2023-02-01T06:31:06;27.53;;;4.77;;
17987;SDS011;9119;50.932;5.342;2023-02-01T06:33:33;25.57;;;4.23;;
17987;SDS011;9119;50.932;5.342;2023-02-01T06:35:59;25.40;;;5.17;;
17987;SDS011;9119;50.932;5.342;2023-02-01T06:38:27;30.50;;;4.80;;
17987;SDS011;9119;50.932;5.342;2023-02-01T06:40:53;35.30;;;5.33;;
17987;SDS011;9119;50.932;5.342;2023-02-01T06:43:21;27.37;;;4.90;;
17987;SDS011;9119;50.932;5.342;2023-02-01T06:45:47;31.70;;;4.70;;
17987;SDS011;9119;50.932;5.342;2023-02-01T06:48:13;16.73;;;3.80;;
17987;SDS011;9119;50.932;5.342;2023-02-01T06:50:38;31.90;;;5.50;;
17987;SDS011;9119;50.932;5.342;2023-02-01T06:53:04;31.77;;;3.80;;
17987;SDS011;9119;50.932;5.342;2023-02-01T06:55:33;38.50;;;6.57;;
17987;SDS011;9119;50.932;5.342;2023-02-01T06:57:59;28.83;;;5.63;;
17987;SDS011;9119;50.932;5.342;2023-02-01T07:00:26;32.60;;;5.17;;
17987;SDS011;9119;50.932;5.342;2023-02-01T07:02:51;31.97;;;5.43;;
17987;SDS011;9119;50.932;5.342;2023-02-01T07:05:17;30.80;;;4.60;;
17987;SDS011;9119;50.932;5.342;2023-02-01T07:07:43;27.13;;;4.13;;
17987;SDS011;9119;50.932;5.342;2023-02-01T07:10:09;22.57;;;4.90;;
17987;SDS011;9119;50.932;5.342;2023-02-01T07:12:35;26.20;;;4.57;;
17987;SDS011;9119;50.932;5.342;2023-02-01T07:15:02;35.63;;;5.57;;
17987;SDS011;9119;50.932;5.342;2023-02-01T07:17:28;29.40;;;4.87;;
17987;SDS011;9119;50.932;5.342;2023-02-01T07:19:54;27.30;;;4.50;;
17987;SDS011;9119;50.932;5.342;2023-02-01T07:22:21;32.70;;;5.10;;
17987;SDS011;9119;50.932;5.342;2023-02-01T07:24:46;28.50;;;4.43;;
17987;SDS011;9119;50.932;5.342;2023-02-01T07:27:12;38.60;;;4.80;;
17987;SDS011;9119;50.932;5.342;2023-02-01T07:29:38;30.30;;;4.70;;
17987;SDS011;9119;50.932;5.342;2023-02-01T07:32:04;31.50;;;5.37;;
17987;SDS011;9119;50.932;5.342;2023-02-01T07:34:30;27.13;;;4.73;;
17987;SDS011;9119;50.932;5.342;2023-02-01T07:36:56;32.93;;;5.00;;
17987;SDS011;9119;50.932;5.342;2023-02-01T07:39:21;24.37;;;4.20;;
17987;SDS011;9119;50.932;5.342;2023-02-01T07:41:47;25.07;;;4.17;;
17987;SDS011;9119;50.932;5.342;2023-02-01T07:44:13;28.67;;;4.50;;
17987;SDS011;9119;50.932;5.342;2023-02-01T07:46:39;28.23;;;4.90;;
17987;SDS011;9119;50.932;5.342;2023-02-01T07:49:05;35.70;;;5.10;;
17987;SDS011;9119;50.932;5.342;2023-02-01T07:51:31;37.97;;;6.23;;
17987;SDS011;9119;50.932;5.342;2023-02-01T07:53:57;32.70;;;5.27;;
17987;SDS011;9119;50.932;5.342;2023-02-01T07:56:22;33.00;;;5.70;;
17987;SDS011;9119;50.932;5.342;2023-02-01T07:58:49;32.90;;;6.10;;
17987;SDS011;9119;50.932;5.342;2023-02-01T08:01:20;25.17;;;6.33;;
17987;SDS011;9119;50.932;5.342;2023-02-01T08:03:50;27.87;;;5.00;;
17987;SDS011;9119;50.932;5.342;2023-02-01T08:06:17;36.63;;;5.03;;
17987;SDS011;9119;50.932;5.342;2023-02-01T08:08:44;27.73;;;4.70;;
17987;SDS011;9119;50.932;5.342;2023-02-01T08:11:12;45.17;;;6.57;;
17987;SDS011;9119;50.932;5.342;2023-02-01T08:13:39;28.83;;;5.00;;
17987;SDS011;9119;50.932;5.342;2023-02-01T08:16:05;24.43;;;4.40;;
17987;SDS011;9119;50.932;5.342;2023-02-01T08:18:33;34.10;;;5.07;;
17987;SDS011;9119;50.932;5.342;2023-02-01T08:23:35;28.83;;;5.13;;
17987;SDS011;9119;50.932;5.342;2023-02-01T08:26:09;25.93;;;5.70;;
17987;SDS011;9119;50.932;5.342;2023-02-01T08:28:41;29.17;;;5.00;;
17987;SDS011;9119;50.932;5.342;2023-02-01T08:31:09;22.97;;;4.60;;
17987;SDS011;9119;50.932;5.342;2023-02-01T08:33:39;36.67;;;6.73;;
17987;SDS011;9119;50.932;5.342;2023-02-01T08:36:06;33.33;;;6.27;;
17987;SDS011;9119;50.932;5.342;2023-02-01T08:38:34;33.40;;;5.10;;
17987;SDS011;9119;50.932;5.342;2023-02-01T08:41:20;29.57;;;4.93;;
17987;SDS011;9119;50.932;5.342;2023-02-01T08:43:48;38.13;;;5.27;;
17987;SDS011;9119;50.932;5.342;2023-02-01T08:46:14;27.67;;;4.53;;
17987;SDS011;9119;50.932;5.342;2023-02-01T08:48:40;28.63;;;4.93;;
17987;SDS011;9119;50.932;5.342;2023-02-01T08:51:07;27.17;;;5.40;;
17987;SDS011;9119;50.932;5.342;2023-02-01T08:53:35;30.73;;;4.63;;
17987;SDS011;9119;50.932;5.342;2023-02-01T08:56:02;30.50;;;4.90;;
17987;SDS011;9119;50.932;5.342;2023-02-01T08:58:28;24.40;;;4.60;;
17987;SDS011;9119;50.932;5.342;2023-02-01T09:00:54;23.97;;;4.77;;
17987;SDS011;9119;50.932;5.342;2023-02-01T09:03:20;36.37;;;5.60;;
17987;SDS011;9119;50.932;5.342;2023-02-01T09:05:51;27.60;;;4.43;;
17987;SDS011;9119;50.932;5.342;2023-02-01T09:08:17;33.83;;;5.33;;
17987;SDS011;9119;50.932;5.342;2023-02-01T09:10:45;39.43;;;4.97;;
17987;SDS011;9119;50.932;5.342;2023-02-01T09:13:10;29.37;;;5.07;;
17987;SDS011;9119;50.932;5.342;2023-02-01T09:15:36;23.43;;;4.90;;
17987;SDS011;9119;50.932;5.342;2023-02-01T09:18:02;27.47;;;5.20;;
17987;SDS011;9119;50.932;5.342;2023-02-01T09:20:28;34.27;;;6.00;;
17987;SDS011;9119;50.932;5.342;2023-02-01T09:22:54;24.37;;;4.77;;
17987;SDS011;9119;50.932;5.342;2023-02-01T09:25:20;24.73;;;4.80;;
17987;SDS011;9119;50.932;5.342;2023-02-01T09:27:46;23.07;;;3.63;;
17987;SDS011;9119;50.932;5.342;2023-02-01T09:30:12;32.80;;;6.43;;
17987;SDS011;9119;50.932;5.342;2023-02-01T09:32:38;24.33;;;5.07;;
17987;SDS011;9119;50.932;5.342;2023-02-01T09:35:03;23.43;;;5.30;;
17987;SDS011;9119;50.932;5.342;2023-02-01T09:37:29;32.27;;;5.10;;
17987;SDS011;9119;50.932;5.342;2023-02-01T09:39:55;33.17;;;5.30;;
17987;SDS011;9119;50.932;5.342;2023-02-01T09:42:26;28.70;;;4.47;;
17987;SDS011;9119;50.932;5.342;2023-02-01T09:45:19;32.87;;;4.57;;
17987;SDS011;9119;50.932;5.342;2023-02-01T09:47:55;18.17;;;3.93;;
17987;SDS011;9119;50.932;5.342;2023-02-01T09:50:37;24.30;;;4.83;;
17987;SDS011;9119;50.932;5.342;2023-02-01T09:53:10;31.80;;;5.17;;
17987;SDS011;9119;50.932;5.342;2023-02-01T09:55:45;33.73;;;6.47;;
17987;SDS011;9119;50.932;5.342;2023-02-01T10:00:53;41.17;;;5.87;;
17987;SDS011;9119;50.932;5.342;2023-02-01T10:03:24;38.37;;;5.37;;
17987;SDS011;9119;50.932;5.342;2023-02-01T10:27:39;23.27;;;4.33;;
17987;SDS011;9119;50.932;5.342;2023-02-01T10:30:28;34.50;;;5.53;;
17987;SDS011;9119;50.932;5.342;2023-02-01T10:32:55;23.70;;;5.40;;
17987;SDS011;9119;50.932;5.342;2023-02-01T10:35:29;29.83;;;4.30;;
17987;SDS011;9119;50.932;5.342;2023-02-01T10:38:01;29.27;;;4.90;;
17987;SDS011;9119;50.932;5.342;2023-02-01T10:40:29;25.93;;;4.80;;
17987;SDS011;9119;50.932;5.342;2023-02-01T10:43:01;29.37;;;5.30;;
17987;SDS011;9119;50.932;5.342;2023-02-01T10:45:28;29.47;;;5.97;;
17987;SDS011;9119;50.932;5.342;2023-02-01T10:47:56;32.00;;;8.23;;
17987;SDS011;9119;50.932;5.342;2023-02-01T10:50:34;31.27;;;8.97;;
17987;SDS011;9119;50.932;5.342;2023-02-01T10:56:05;25.10;;;5.07;;
17987;SDS011;9119;50.932;5.342;2023-02-01T10:58:35;22.80;;;4.47;;
17987;SDS011;9119;50.932;5.342;2023-02-01T11:01:08;23.93;;;4.73;;
17987;SDS011;9119;50.932;5.342;2023-02-01T11:03:41;19.17;;;4.30;;
17987;SDS011;9119;50.932;5.342;2023-02-01T11:11:32;27.00;;;4.70;;
17987;SDS011;9119;50.932;5.342;2023-02-01T11:14:20;28.57;;;4.77;;
17987;SDS011;9119;50.932;5.342;2023-02-01T11:17:01;20.90;;;4.60;;
17987;SDS011;9119;50.932;5.342;2023-02-01T11:19:43;26.33;;;5.17;;
17987;SDS011;9119;50.932;5.342;2023-02-01T11:22:10;22.70;;;4.37;;
17987;SDS011;9119;50.932;5.342;2023-02-01T11:24:37;27.17;;;5.33;;
17987;SDS011;9119;50.932;5.342;2023-02-01T11:27:05;24.70;;;4.20;;
17987;SDS011;9119;50.932;5.342;2023-02-01T11:29:41;28.03;;;4.33;;
17987;SDS011;9119;50.932;5.342;2023-02-01T11:32:10;22.90;;;5.07;;
17987;SDS011;9119;50.932;5.342;2023-02-01T11:34:41;20.23;;;4.07;;
17987;SDS011;9119;50.932;5.342;2023-02-01T11:37:14;20.00;;;3.50;;
17987;SDS011;9119;50.932;5.342;2023-02-01T11:40:36;25.53;;;5.43;;
17987;SDS011;9119;50.932;5.342;2023-02-01T11:45:54;33.47;;;4.73;;
17987;SDS011;9119;50.932;5.342;2023-02-01T11:48:26;17.90;;;4.13;;
17987;SDS011;9119;50.932;5.342;2023-02-01T11:54:04;20.20;;;4.23;;
17987;SDS011;9119;50.932;5.342;2023-02-01T11:56:41;22.90;;;4.37;;
17987;SDS011;9119;50.932;5.342;2023-02-01T11:59:25;19.83;;;3.90;;
17987;SDS011;9119;50.932;5.342;2023-02-01T12:12:59;24.97;;;4.03;;
17987;SDS011;9119;50.932;5.342;2023-02-01T12:16:37;15.73;;;3.40;;
17987;SDS011;9119;50.932;5.342;2023-02-01T12:21:17;21.97;;;3.50;;
17987;SDS011;9119;50.932;5.342;2023-02-01T12:27:03;17.13;;;3.63;;
17987;SDS011;9119;50.932;5.342;2023-02-01T12:43:17;20.60;;;3.77;;
17987;SDS011;9119;50.932;5.342;2023-02-01T12:45:55;21.67;;;3.97;;
17987;SDS011;9119;50.932;5.342;2023-02-01T12:50:56;16.63;;;3.53;;
17987;SDS011;9119;50.932;5.342;2023-02-01T12:58:54;22.10;;;3.10;;
17987;SDS011;9119;50.932;5.342;2023-02-01T13:04:38;22.47;;;3.20;;
17987;SDS011;9119;50.932;5.342;2023-02-01T13:07:07;17.03;;;2.87;;
17987;SDS011;9119;50.932;5.342;2023-02-01T13:09:49;20.90;;;4.13;;
17987;SDS011;9119;50.932;5.342;2023-02-01T13:12:37;20.83;;;3.80;;
17987;SDS011;9119;50.932;5.342;2023-02-01T13:17:41;15.23;;;3.40;;
17987;SDS011;9119;50.932;5.342;2023-02-01T13:23:04;21.27;;;3.57;;
17987;SDS011;9119;50.932;5.342;2023-02-01T13:25:43;16.80;;;2.93;;
17987;SDS011;9119;50.932;5.342;2023-02-01T13:28:20;21.07;;;2.97;;
17987;SDS011;9119;50.932;5.342;2023-02-01T13:38:56;19.80;;;4.20;;
17987;SDS011;9119;50.932;5.342;2023-02-01T13:44:38;18.07;;;3.30;;
17987;SDS011;9119;50.932;5.342;2023-02-01T13:49:42;17.97;;;3.20;;
17987;SDS011;9119;50.932;5.342;2023-02-01T13:52:18;19.20;;;2.90;;
17987;SDS011;9119;50.932;5.342;2023-02-01T13:57:47;17.23;;;3.13;;
17987;SDS011;9119;50.932;5.342;2023-02-01T14:00:34;10.97;;;3.53;;
17987;SDS011;9119;50.932;5.342;2023-02-01T14:08:09;23.93;;;3.90;;
17987;SDS011;9119;50.932;5.342;2023-02-01T14:10:47;16.17;;;3.30;;
17987;SDS011;9119;50.932;5.342;2023-02-01T14:13:33;19.37;;;3.33;;
17987;SDS011;9119;50.932;5.342;2023-02-01T14:24:24;19.03;;;3.17;;
17987;SDS011;9119;50.932;5.342;2023-02-01T14:29:10;18.63;;;2.83;;
17987;SDS011;9119;50.932;5.342;2023-02-01T14:32:00;18.17;;;3.53;;
17987;SDS011;9119;50.932;5.342;2023-02-01T14:42:51;19.00;;;2.90;;
17987;SDS011;9119;50.932;5.342;2023-02-01T14:47:49;20.53;;;4.63;;
17987;SDS011;9119;50.932;5.342;2023-02-01T15:00:56;21.23;;;3.90;;
17987;SDS011;9119;50.932;5.342;2023-02-01T15:06:12;19.07;;;3.73;;
17987;SDS011;9119;50.932;5.342;2023-02-01T15:09:09;14.87;;;3.30;;
17987;SDS011;9119;50.932;5.342;2023-02-01T15:14:44;13.37;;;3.23;;
17987;SDS011;9119;50.932;5.342;2023-02-01T15:17:18;17.57;;;3.70;;
17987;SDS011;9119;50.932;5.342;2023-02-01T15:22:37;18.00;;;3.13;;
17987;SDS011;9119;50.932;5.342;2023-02-01T15:25:03;22.50;;;3.43;;
17987;SDS011;9119;50.932;5.342;2023-02-01T15:27:29;28.63;;;4.20;;
17987;SDS011;9119;50.932;5.342;2023-02-01T15:32:46;20.23;;;3.40;;
17987;SDS011;9119;50.932;5.342;2023-02-01T15:40:55;15.23;;;3.57;;
17987;SDS011;9119;50.932;5.342;2023-02-01T15:46:23;17.43;;;4.47;;
17987;SDS011;9119;50.932;5.342;2023-02-01T15:48:56;14.53;;;3.87;;
17987;SDS011;9119;50.932;5.342;2023-02-01T15:51:22;20.63;;;3.67;;
17987;SDS011;9119;50.932;5.342;2023-02-01T15:54:37;22.20;;;3.53;;
17987;SDS011;9119;50.932;5.342;2023-02-01T15:56:46;21.77;;;3.67;;
17987;SDS011;9119;50.932;5.342;2023-02-01T15:59:19;24.67;;;4.70;;
17987;SDS011;9119;50.932;5.342;2023-02-01T16:01:50;22.87;;;4.10;;
17987;SDS011;9119;50.932;5.342;2023-02-01T16:09:21;27.93;;;4.30;;
17987;SDS011;9119;50.932;5.342;2023-02-01T16:11:54;27.20;;;4.10;;
17987;SDS011;9119;50.932;5.342;2023-02-01T16:14:22;21.10;;;3.67;;
17987;SDS011;9119;50.932;5.342;2023-02-01T16:16:48;23.50;;;3.30;;
17987;SDS011;9119;50.932;5.342;2023-02-01T16:19:15;21.07;;;3.73;;
17987;SDS011;9119;50.932;5.342;2023-02-01T16:21:41;19.90;;;3.33;;
17987;SDS011;9119;50.932;5.342;2023-02-01T16:24:06;22.50;;;4.27;;
17987;SDS011;9119;50.932;5.342;2023-02-01T16:26:33;20.40;;;3.80;;
17987;SDS011;9119;50.932;5.342;2023-02-01T16:28:59;24.00;;;4.47;;
17987;SDS011;9119;50.932;5.342;2023-02-01T16:31:28;22.07;;;3.97;;
17987;SDS011;9119;50.932;5.342;2023-02-01T16:33:56;21.83;;;3.50;;
17987;SDS011;9119;50.932;5.342;2023-02-01T16:36:22;21.17;;;3.77;;
17987;SDS011;9119;50.932;5.342;2023-02-01T16:38:50;20.80;;;3.57;;
17987;SDS011;9119;50.932;5.342;2023-02-01T16:41:18;29.73;;;4.83;;
17987;SDS011;9119;50.932;5.342;2023-02-01T16:43:45;20.33;;;3.87;;
17987;SDS011;9119;50.932;5.342;2023-02-01T16:46:16;15.73;;;3.67;;
17987;SDS011;9119;50.932;5.342;2023-02-01T16:48:51;30.80;;;3.63;;
17987;SDS011;9119;50.932;5.342;2023-02-01T16:51:23;16.73;;;3.77;;
17987;SDS011;9119;50.932;5.342;2023-02-01T16:53:50;17.30;;;3.90;;
17987;SDS011;9119;50.932;5.342;2023-02-01T16:56:28;22.40;;;3.93;;
17987;SDS011;9119;50.932;5.342;2023-02-01T16:58:58;19.77;;;4.00;;
17987;SDS011;9119;50.932;5.342;2023-02-01T17:01:25;17.87;;;3.37;;
17987;SDS011;9119;50.932;5.342;2023-02-01T17:03:51;21.77;;;4.10;;
17987;SDS011;9119;50.932;5.342;2023-02-01T17:06:17;19.73;;;4.50;;
17987;SDS011;9119;50.932;5.342;2023-02-01T17:08:55;24.80;;;5.07;;
17987;SDS011;9119;50.932;5.342;2023-02-01T17:11:25;28.23;;;4.37;;
17987;SDS011;9119;50.932;5.342;2023-02-01T17:13:52;27.13;;;4.73;;
17987;SDS011;9119;50.932;5.342;2023-02-01T17:18:45;19.30;;;4.07;;
17987;SDS011;9119;50.932;5.342;2023-02-01T17:21:15;33.47;;;5.90;;
17987;SDS011;9119;50.932;5.342;2023-02-01T17:23:41;32.10;;;5.20;;
17987;SDS011;9119;50.932;5.342;2023-02-01T17:26:08;25.23;;;6.23;;
17987;SDS011;9119;50.932;5.342;2023-02-01T17:28:34;29.00;;;5.10;;
17987;SDS011;9119;50.932;5.342;2023-02-01T17:31:01;20.93;;;5.23;;
17987;SDS011;9119;50.932;5.342;2023-02-01T17:35:59;16.13;;;4.30;;
17987;SDS011;9119;50.932;5.342;2023-02-01T17:38:25;19.43;;;4.60;;
17987;SDS011;9119;50.932;5.342;2023-02-01T17:40:54;29.90;;;5.00;;
17987;SDS011;9119;50.932;5.342;2023-02-01T17:43:21;20.40;;;3.93;;
17987;SDS011;9119;50.932;5.342;2023-02-01T17:46:01;17.07;;;4.27;;
17987;SDS011;9119;50.932;5.342;2023-02-01T17:48:36;25.70;;;4.40;;
17987;SDS011;9119;50.932;5.342;2023-02-01T17:51:03;24.13;;;5.43;;
17987;SDS011;9119;50.932;5.342;2023-02-01T17:53:29;30.67;;;5.13;;
17987;SDS011;9119;50.932;5.342;2023-02-01T17:55:55;28.10;;;5.63;;
17987;SDS011;9119;50.932;5.342;2023-02-01T17:58:24;21.33;;;4.33;;
17987;SDS011;9119;50.932;5.342;2023-02-01T18:00:50;22.07;;;4.93;;
17987;SDS011;9119;50.932;5.342;2023-02-01T18:05:48;27.67;;;5.47;;
17987;SDS011;9119;50.932;5.342;2023-02-01T18:08:19;25.20;;;4.53;;
17987;SDS011;9119;50.932;5.342;2023-02-01T18:10:50;25.27;;;4.63;;
17987;SDS011;9119;50.932;5.342;2023-02-01T18:13:18;26.70;;;4.83;;
17987;SDS011;9119;50.932;5.342;2023-02-01T18:15:44;30.50;;;5.00;;
17987;SDS011;9119;50.932;5.342;2023-02-01T18:18:10;26.67;;;5.67;;
17987;SDS011;9119;50.932;5.342;2023-02-01T18:20:36;39.50;;;10.07;;
17987;SDS011;9119;50.932;5.342;2023-02-01T18:23:05;37.57;;;6.97;;
17987;SDS011;9119;50.932;5.342;2023-02-01T18:25:36;30.80;;;10.53;;
17987;SDS011;9119;50.932;5.342;2023-02-01T18:28:02;28.47;;;6.07;;
17987;SDS011;9119;50.932;5.342;2023-02-01T18:30:29;28.57;;;6.60;;
17987;SDS011;9119;50.932;5.342;2023-02-01T18:32:56;33.10;;;6.63;;
17987;SDS011;9119;50.932;5.342;2023-02-01T18:35:23;25.40;;;6.10;;
17987;SDS011;9119;50.932;5.342;2023-02-01T18:37:51;22.77;;;5.20;;
17987;SDS011;9119;50.932;5.342;2023-02-01T18:40:21;39.03;;;9.33;;